Time;durP1;ratioP1;P1;durP2;ratioP2;P2;SDS_P1;SDS_P2;PMS_P1;PMS_P2;Temp;Humidity;BMP_temperature;BMP_pressure;BME280_temperature;BME280_humidity;BME280_pressure;Samples;Min_cycle;Max_cycle;Signal;HPM_P1;HPM_P2
2022/04/22 00:01:02;;;;;;;14.80;2.80;;;17.70;79.90;;;;;;5060368;28;20183;-75
2022/04/22 00:03:29;;;;;;;8.00;2.37;;;17.70;79.60;;;;;;5054807;28;20215;-75
2022/04/22 00:05:56;;;;;;;10.80;2.33;;;17.70;79.40;;;;;;5055493;28;20243;-75
2022/04/22 00:08:24;;;;;;;11.43;2.40;;;17.80;79.40;;;;;;5054090;28;20183;-75
2022/04/22 00:13:37;;;;;;;12.00;2.67;;;18.00;79.60;;;;;;5050567;28;20583;-73
2022/04/22 00:16:06;;;;;;;16.27;2.90;;;18.10;78.30;;;;;;5051550;28;20202;-74
2022/04/22 00:18:34;;;;;;;7.53;2.50;;;18.20;78.20;;;;;;5054790;28;20204;-73
2022/04/22 00:21:02;;;;;;;8.00;2.27;;;18.40;78.60;;;;;;5049057;28;20188;-73
2022/04/22 00:23:29;;;;;;;7.37;2.00;;;18.50;77.80;;;;;;5043952;28;20186;-73
2022/04/22 00:26:00;;;;;;;8.00;2.17;;;18.70;76.80;;;;;;5060855;28;20241;-74
2022/04/22 00:28:28;;;;;;;10.33;2.10;;;18.90;76.20;;;;;;5057484;28;20179;-72
2022/04/22 00:30:56;;;;;;;10.00;2.20;;;18.90;76.10;;;;;;5053859;28;20179;-72
2022/04/22 00:33:23;;;;;;;8.70;1.70;;;19.00;72.10;;;;;;5058208;28;20270;-74
2022/04/22 00:35:51;;;;;;;12.07;2.37;;;19.20;72.00;;;;;;5044958;28;20180;-74
2022/04/22 00:38:18;;;;;;;11.23;2.17;;;19.20;70.60;;;;;;5035014;28;20200;-74
2022/04/22 00:40:45;;;;;;;10.63;2.03;;;19.30;70.00;;;;;;5063331;28;20552;-74
2022/04/22 00:43:22;;;;;;;10.30;1.90;;;19.30;70.00;;;;;;5053468;28;20227;-74
2022/04/22 00:45:51;;;;;;;8.17;2.00;;;19.40;69.90;;;;;;5053994;28;20164;-77
2022/04/22 00:48:20;;;;;;;11.00;1.80;;;19.40;68.70;;;;;;5051760;28;20180;-74
2022/04/22 00:50:48;;;;;;;8.23;1.60;;;19.50;68.20;;;;;;5050602;28;20251;-72
2022/04/22 00:53:16;;;;;;;7.00;2.63;;;19.60;67.30;;;;;;5054353;28;20552;-73
2022/04/22 00:55:45;;;;;;;8.17;3.43;;;19.70;67.70;;;;;;5057080;28;20188;-72
2022/04/22 00:58:13;;;;;;;7.20;2.83;;;19.80;66.60;;;;;;5054795;28;20199;-73
2022/04/22 01:00:41;;;;;;;11.17;2.07;;;20.00;66.60;;;;;;5051523;28;20663;-76
2022/04/22 01:03:09;;;;;;;10.53;1.90;;;20.20;65.60;;;;;;5060403;28;20183;-72
2022/04/22 01:11:32;;;;;;;9.50;1.90;;;20.30;65.70;;;;;;5031644;28;20320;-74
2022/04/22 01:14:09;;;;;;;8.03;1.80;;;20.10;66.60;;;;;;5030942;28;20672;-74
2022/04/22 01:16:36;;;;;;;11.27;1.87;;;19.80;68.60;;;;;;5051715;28;20248;-75
2022/04/22 01:19:03;;;;;;;7.97;1.80;;;19.60;69.40;;;;;;5072803;28;20249;-74
2022/04/22 01:21:31;;;;;;;8.87;2.27;;;19.30;70.70;;;;;;5067506;28;20222;-72
2022/04/22 01:23:58;;;;;;;8.87;2.57;;;19.20;72.40;;;;;;5042107;28;20663;-74
2022/04/22 01:26:25;;;;;;;13.53;3.90;;;19.10;71.90;;;;;;5048809;28;20176;-75
2022/04/22 01:28:53;;;;;;;13.00;2.70;;;19.20;72.50;;;;;;5052363;28;20180;-72
2022/04/22 01:31:22;;;;;;;8.03;2.00;;;19.30;72.10;;;;;;5052361;28;20631;-74
2022/04/22 01:33:50;;;;;;;5.53;1.90;;;19.40;73.00;;;;;;5053409;28;20180;-74
2022/04/22 01:36:17;;;;;;;9.73;1.90;;;19.50;70.40;;;;;;5053623;28;20195;-73
2022/04/22 01:38:44;;;;;;;11.83;2.23;;;19.60;69.40;;;;;;5053536;28;20231;-73
2022/04/22 01:41:12;;;;;;;7.10;1.53;;;19.70;68.40;;;;;;5047963;28;20679;-74
2022/04/22 01:43:40;;;;;;;8.70;2.27;;;19.80;68.30;;;;;;5052274;28;20183;-72
2022/04/22 01:46:07;;;;;;;9.03;4.30;;;19.90;68.20;;;;;;5058055;28;20180;-72
2022/04/22 01:48:34;;;;;;;8.77;1.93;;;20.00;67.80;;;;;;5051748;28;20199;-72
2022/04/22 01:51:01;;;;;;;7.97;1.73;;;20.10;67.40;;;;;;5053449;28;20172;-73
2022/04/22 01:53:29;;;;;;;11.77;2.20;;;20.00;67.30;;;;;;5052236;28;20179;-77
2022/04/22 01:55:56;;;;;;;12.23;2.87;;;20.00;68.80;;;;;;5032881;28;20223;-75
2022/04/22 01:58:23;;;;;;;9.00;2.27;;;19.80;72.10;;;;;;5052121;28;20211;-74
2022/04/22 02:00:51;;;;;;;14.67;2.90;;;19.70;73.20;;;;;;5050899;28;20172;-74
2022/04/22 02:03:18;;;;;;;9.30;2.53;;;19.60;73.70;;;;;;5065289;28;20540;-74
2022/04/22 02:05:46;;;;;;;10.10;2.43;;;19.60;74.20;;;;;;5047844;28;20662;-76
2022/04/22 02:08:14;;;;;;;12.83;2.37;;;19.70;73.70;;;;;;5053618;28;20555;-74
2022/04/22 02:10:46;;;;;;;17.67;2.83;;;19.80;72.80;;;;;;5044157;28;20172;-75
2022/04/22 02:13:13;;;;;;;7.90;1.97;;;20.00;71.80;;;;;;5032842;28;20180;-82
2022/04/22 02:15:41;;;;;;;7.73;1.93;;;20.30;69.20;;;;;;5031875;28;20257;-77
2022/04/22 02:18:08;;;;;;;10.07;1.90;;;20.30;67.50;;;;;;5046673;28;20208;-78
2022/04/22 02:20:35;;;;;;;9.37;2.30;;;20.30;66.40;;;;;;5052341;28;20263;-76
2022/04/22 02:23:03;;;;;;;8.33;2.33;;;20.20;70.60;;;;;;5048555;28;20575;-76
2022/04/22 02:25:30;;;;;;;5.20;2.37;;;19.90;71.10;;;;;;5043026;28;20176;-77
2022/04/22 02:30:42;;;;;;;9.20;1.60;;;19.70;72.50;;;;;;5044332;28;20175;-76
2022/04/22 02:33:10;;;;;;;7.40;1.80;;;19.60;71.60;;;;;;5046138;28;20558;-74
2022/04/22 02:35:37;;;;;;;5.40;1.70;;;19.60;71.10;;;;;;5052216;28;20176;-76
2022/04/22 02:38:05;;;;;;;5.17;1.03;;;19.80;70.80;;;;;;5047149;28;20196;-75
2022/04/22 02:46:03;;;;;;;7.30;1.40;;;19.80;68.70;;;;;;5037620;28;20191;-74
2022/04/22 02:48:30;;;;;;;3.37;1.13;;;19.70;67.70;;;;;;5032593;28;20226;-75
2022/04/22 02:50:57;;;;;;;5.13;1.30;;;19.70;68.10;;;;;;5031813;28;20230;-73
2022/04/22 02:53:25;;;;;;;7.57;1.67;;;19.50;69.30;;;;;;5049011;28;20200;-74
2022/04/22 02:55:53;;;;;;;11.27;2.00;;;19.30;75.30;;;;;;5052261;28;20173;-77
2022/04/22 02:58:21;;;;;;;9.97;2.10;;;18.50;81.10;;;;;;5048822;28;20266;-80
2022/04/22 03:00:48;;;;;;;10.77;2.40;;;17.90;85.00;;;;;;5033135;28;20611;-85
2022/04/22 03:03:16;;;;;;;10.60;1.70;;;17.70;86.20;;;;;;5046290;28;20262;-84
2022/04/22 03:05:43;;;;;;;12.43;2.07;;;17.50;87.20;;;;;;5052374;28;20226;-79
2022/04/22 03:08:10;;;;;;;11.13;1.90;;;17.60;88.00;;;;;;5049076;28;20225;-85
2022/04/22 03:10:38;;;;;;;8.93;1.83;;;17.60;88.10;;;;;;5050560;28;20194;-81
2022/04/22 03:13:06;;;;;;;9.23;2.00;;;17.60;88.20;;;;;;5048921;28;20274;-82
2022/04/22 03:15:33;;;;;;;5.63;2.00;;;17.60;88.30;;;;;;5050300;28;20245;-79
2022/04/22 03:18:01;;;;;;;7.40;1.87;;;17.70;88.40;;;;;;5050317;28;20579;-82
2022/04/22 03:20:29;;;;;;;7.40;2.03;;;17.70;87.70;;;;;;5052834;28;20176;-82
2022/04/22 03:22:56;;;;;;;9.20;2.10;;;17.80;87.30;;;;;;5052324;28;20229;-83
2022/04/22 03:25:24;;;;;;;10.13;1.80;;;17.80;87.30;;;;;;5051807;28;20199;-82
2022/04/22 03:27:52;;;;;;;9.60;2.60;;;17.90;86.20;;;;;;5052008;28;20183;-84
2022/04/22 03:30:19;;;;;;;6.57;1.80;;;18.10;87.40;;;;;;5051619;28;20187;-82
2022/04/22 03:32:46;;;;;;;5.97;2.37;;;18.20;86.30;;;;;;5062365;28;20194;-80
2022/04/22 03:35:14;;;;;;;13.23;1.90;;;18.20;86.70;;;;;;5071363;28;20542;-82
2022/04/22 03:37:42;;;;;;;5.80;1.60;;;18.20;85.70;;;;;;5072368;28;20189;-82
2022/04/22 03:40:10;;;;;;;11.40;1.93;;;18.30;85.40;;;;;;5064275;28;20220;-82
2022/04/22 03:42:38;;;;;;;6.43;1.47;;;18.30;84.40;;;;;;5051718;28;20220;-81
2022/04/22 03:45:06;;;;;;;11.10;1.90;;;18.30;84.40;;;;;;5051998;28;20176;-78
2022/04/22 03:47:33;;;;;;;7.07;2.00;;;18.30;83.80;;;;;;5051315;28;20180;-78
2022/04/22 03:50:00;;;;;;;8.27;1.83;;;18.40;83.90;;;;;;5051961;28;20221;-79
2022/04/22 03:52:28;;;;;;;7.80;1.80;;;18.50;83.40;;;;;;5052080;28;20596;-79
2022/04/22 03:54:55;;;;;;;6.60;1.80;;;18.50;84.20;;;;;;5052068;28;20603;-79
2022/04/22 04:00:09;;;;;;;7.53;2.13;;;18.60;83.80;;;;;;5052102;28;20891;-81
2022/04/22 04:02:36;;;;;;;7.43;2.00;;;18.50;83.50;;;;;;5063328;28;20175;-84
2022/04/22 04:05:04;;;;;;;9.87;2.00;;;18.60;83.50;;;;;;5075457;28;20214;-86
2022/04/22 04:07:32;;;;;;;7.50;1.60;;;18.60;83.90;;;;;;5076551;28;20159;-86
2022/04/22 04:18:14;;;;;;;8.90;1.80;;;18.50;84.90;;;;;;5035572;28;20207;-85
2022/04/22 04:23:27;;;;;;;6.57;1.93;;;18.30;83.20;;;;;;5037948;28;20187;-84
2022/04/22 04:25:54;;;;;;;6.67;1.60;;;18.30;83.50;;;;;;5071669;28;20233;-76
2022/04/22 04:28:23;;;;;;;8.27;1.77;;;18.20;82.60;;;;;;5049906;28;20254;-77
2022/04/22 04:30:50;;;;;;;13.03;2.60;;;18.10;83.90;;;;;;5037858;28;20242;-76
2022/04/22 04:33:18;;;;;;;9.87;2.33;;;18.10;84.80;;;;;;5049919;28;20202;-83
2022/04/22 04:35:47;;;;;;;12.80;1.90;;;18.20;85.20;;;;;;5060999;28;20172;-85
2022/04/22 04:38:17;;;;;;;11.47;1.70;;;18.20;85.80;;;;;;5073627;28;20195;-78
2022/04/22 04:40:45;;;;;;;7.57;1.60;;;18.10;85.10;;;;;;5074634;28;20183;-82
2022/04/22 04:43:13;;;;;;;6.80;1.90;;;17.90;85.30;;;;;;5075169;28;20760;-81
2022/04/22 04:45:41;;;;;;;6.30;1.83;;;17.80;85.80;;;;;;5066997;28;20536;-74
2022/04/22 04:48:08;;;;;;;6.40;1.60;;;17.80;86.70;;;;;;5055579;28;20218;-83
2022/04/22 04:50:36;;;;;;;11.07;2.07;;;17.70;86.80;;;;;;5054848;28;20187;-81
2022/04/22 04:53:03;;;;;;;7.20;1.80;;;17.70;87.60;;;;;;5060802;28;20606;-75
2022/04/22 04:55:30;;;;;;;7.37;1.83;;;17.80;87.20;;;;;;5059680;28;20227;-80
2022/04/22 04:57:58;;;;;;;5.17;1.73;;;17.80;87.50;;;;;;5053882;28;20535;-76
2022/04/22 05:00:25;;;;;;;10.30;4.03;;;17.70;87.50;;;;;;5065052;28;20194;-79
2022/04/22 05:02:55;;;;;;;16.77;7.53;;;17.50;87.70;;;;;;5073681;28;20551;-79
2022/04/22 05:05:23;;;;;;;8.07;2.03;;;17.50;88.10;;;;;;5074368;28;20195;-78
2022/04/22 05:07:53;;;;;;;6.63;2.20;;;17.40;88.20;;;;;;5072460;28;20193;-77
2022/04/22 05:10:21;;;;;;;11.13;1.90;;;17.30;88.50;;;;;;5060703;28;21099;-78
2022/04/22 05:12:49;;;;;;;8.00;1.50;;;17.40;89.20;;;;;;5065936;28;20258;-79
2022/04/22 05:15:18;;;;;;;11.30;2.77;;;17.40;89.10;;;;;;5054388;28;20200;-80
2022/04/22 05:17:47;;;;;;;10.17;1.80;;;17.30;89.10;;;;;;5053756;28;20180;-84
2022/04/22 05:20:16;;;;;;;9.00;2.13;;;17.30;89.00;;;;;;5060715;28;20284;-82
2022/04/22 05:22:45;;;;;;;7.07;1.87;;;17.30;88.80;;;;;;5052127;28;20179;-79
2022/04/22 05:25:14;;;;;;;9.20;1.70;;;17.30;88.10;;;;;;5054294;28;20182;-79
2022/04/22 05:27:42;;;;;;;7.60;2.00;;;17.30;88.00;;;;;;5055193;28;20198;-81
2022/04/22 05:32:56;;;;;;;6.17;1.47;;;17.40;88.60;;;;;;5065408;28;20540;-78
2022/04/22 05:35:27;;;;;;;7.27;1.97;;;17.50;88.10;;;;;;5072417;28;20187;-76
2022/04/22 05:38:00;;;;;;;6.27;1.70;;;17.60;87.80;;;;;;5072211;28;20179;-77
2022/04/22 05:40:35;;;;;;;5.23;1.60;;;17.70;87.00;;;;;;5060535;28;20180;-77
2022/04/22 05:43:03;;;;;;;5.40;1.73;;;17.80;86.80;;;;;;5052233;28;20226;-81
2022/04/22 05:45:31;;;;;;;6.90;1.83;;;18.00;86.80;;;;;;5060257;28;20241;-80
2022/04/22 05:47:59;;;;;;;8.20;2.20;;;17.90;86.00;;;;;;5063328;28;20241;-80
2022/04/22 05:50:28;;;;;;;5.23;1.50;;;18.00;86.10;;;;;;5041066;28;20176;-81
2022/04/22 05:52:56;;;;;;;6.03;1.83;;;18.00;86.20;;;;;;5052939;28;20194;-79
2022/04/22 05:55:26;;;;;;;7.90;1.83;;;18.00;86.10;;;;;;5037362;28;20552;-80
2022/04/22 05:57:54;;;;;;;5.07;1.70;;;17.80;85.70;;;;;;5032025;28;20227;-81
2022/04/22 06:00:25;;;;;;;6.60;1.70;;;17.90;86.80;;;;;;5043455;28;20192;-82
2022/04/22 06:02:56;;;;;;;5.10;1.63;;;17.80;86.10;;;;;;5052725;28;20176;-80
2022/04/22 06:05:24;;;;;;;6.60;1.80;;;17.80;85.40;;;;;;5051278;28;20179;-81
2022/04/22 06:10:40;;;;;;;7.63;1.80;;;17.70;85.70;;;;;;5060922;28;20233;-75
2022/04/22 06:13:08;;;;;;;5.07;1.57;;;17.60;86.20;;;;;;5047952;28;20235;-78
2022/04/22 06:15:35;;;;;;;6.83;1.40;;;17.50;86.40;;;;;;5053287;28;20222;-78
2022/04/22 06:18:03;;;;;;;7.80;1.93;;;17.40;86.40;;;;;;5053495;28;20196;-78
2022/04/22 06:20:31;;;;;;;8.70;1.63;;;17.40;86.90;;;;;;5052087;28;20610;-79
2022/04/22 06:22:58;;;;;;;7.77;1.60;;;17.40;87.40;;;;;;5061366;28;20207;-82
2022/04/22 06:25:27;;;;;;;9.10;1.90;;;17.30;87.70;;;;;;5047642;28;20189;-82
2022/04/22 06:27:56;;;;;;;5.93;1.60;;;17.30;87.80;;;;;;5043787;28;20254;-82
2022/04/22 06:30:24;;;;;;;4.83;1.17;;;17.30;87.80;;;;;;5045706;28;20183;-81
2022/04/22 06:32:53;;;;;;;8.97;1.83;;;17.40;87.90;;;;;;5055766;28;20176;-79
2022/04/22 06:35:21;;;;;;;10.67;1.77;;;17.30;87.60;;;;;;5053234;28;20215;-80
2022/04/22 06:37:53;;;;;;;4.70;1.53;;;17.30;87.50;;;;;;5052555;28;20180;-81
2022/04/22 06:45:54;;;;;;;6.13;1.47;;;17.30;87.90;;;;;;5032864;28;20179;-80
2022/04/22 06:48:34;;;;;;;8.37;2.20;;;17.30;88.10;;;;;;5032483;28;20168;-81
2022/04/22 06:51:06;;;;;;;4.17;1.47;;;17.30;88.30;;;;;;5038782;28;20183;-79
2022/04/22 06:53:36;;;;;;;6.90;1.93;;;17.30;88.70;;;;;;5052702;28;20186;-80
2022/04/22 06:56:06;;;;;;;5.40;1.67;;;17.30;88.80;;;;;;5052555;28;20194;-80
2022/04/22 06:58:37;;;;;;;4.57;1.60;;;17.30;89.10;;;;;;5035097;28;20693;-80
2022/04/22 07:01:05;;;;;;;8.30;2.07;;;17.30;89.30;;;;;;5034365;28;20187;-81
2022/04/22 07:03:33;;;;;;;6.33;1.77;;;17.30;89.00;;;;;;5060244;28;20182;-81
2022/04/22 07:06:00;;;;;;;7.17;2.30;;;17.30;89.20;;;;;;5050816;28;20365;-81
2022/04/22 07:08:28;;;;;;;8.53;2.27;;;17.30;89.60;;;;;;5053723;28;20195;-77
2022/04/22 07:11:00;;;;;;;7.23;1.90;;;17.30;89.60;;;;;;5052145;28;20179;-81
2022/04/22 07:13:28;;;;;;;7.30;1.60;;;17.30;89.50;;;;;;5051394;28;20589;-82
2022/04/22 07:15:59;;;;;;;8.83;2.50;;;17.30;89.30;;;;;;5051987;28;20184;-83
2022/04/22 07:18:26;;;;;;;9.27;2.10;;;17.30;89.00;;;;;;5052269;28;20211;-83
2022/04/22 07:20:54;;;;;;;5.43;1.87;;;17.30;89.20;;;;;;5052276;28;20191;-81
2022/04/22 07:23:21;;;;;;;13.47;2.30;;;17.30;89.20;;;;;;5066718;28;20716;-81
2022/04/22 07:25:49;;;;;;;7.97;1.67;;;17.30;88.60;;;;;;5058236;28;20241;-77
2022/04/22 07:28:17;;;;;;;6.30;2.00;;;17.30;87.90;;;;;;5052292;28;20176;-83
2022/04/22 07:30:50;;;;;;;9.60;2.10;;;17.30;87.90;;;;;;5055914;28;20176;-82
2022/04/22 07:33:17;;;;;;;11.00;2.30;;;17.30;87.80;;;;;;5053034;28;20650;-80
2022/04/22 07:35:45;;;;;;;8.37;2.00;;;17.30;87.70;;;;;;5050902;28;20187;-83
2022/04/22 07:38:12;;;;;;;7.23;1.97;;;17.20;87.30;;;;;;5055256;28;20187;-86
2022/04/22 07:40:40;;;;;;;4.43;2.03;;;17.30;87.30;;;;;;5044831;28;20286;-86
2022/04/22 07:48:40;;;;;;;8.20;2.30;;;17.30;87.50;;;;;;5056278;28;20225;-83
2022/04/22 07:51:07;;;;;;;12.10;2.43;;;17.30;87.70;;;;;;5054664;28;20180;-87
2022/04/22 07:53:35;;;;;;;8.87;2.40;;;17.30;87.70;;;;;;5056877;28;20196;-83
2022/04/22 07:56:07;;;;;;;10.40;2.10;;;17.20;87.40;;;;;;5052324;28;20293;-80
2022/04/22 07:58:36;;;;;;;8.00;1.70;;;17.30;87.40;;;;;;5050804;28;20243;-80
2022/04/22 08:01:04;;;;;;;7.17;2.17;;;17.30;86.60;;;;;;5054093;28;20551;-82
2022/04/22 08:03:31;;;;;;;9.50;1.77;;;17.30;86.40;;;;;;5072156;28;20641;-80
2022/04/22 08:05:58;;;;;;;3.87;1.50;;;17.30;86.20;;;;;;5060621;28;20195;-79
2022/04/22 08:08:28;;;;;;;5.00;1.43;;;17.20;85.90;;;;;;5075770;28;20232;-81
2022/04/22 08:10:57;;;;;;;5.53;1.53;;;17.10;86.00;;;;;;5061872;28;20244;-82
2022/04/22 08:13:28;;;;;;;4.80;1.60;;;17.10;86.40;;;;;;5049804;28;20237;-81
2022/04/22 08:15:55;;;;;;;6.33;3.87;;;17.00;86.60;;;;;;5054188;28;20190;-84
2022/04/22 08:18:23;;;;;;;8.53;4.93;;;17.00;86.80;;;;;;5053234;28;20757;-83
2022/04/22 08:20:50;;;;;;;15.57;8.10;;;17.00;87.10;;;;;;5034668;28;20582;-84
2022/04/22 08:23:20;;;;;;;7.43;2.77;;;17.00;87.40;;;;;;5070043;28;20209;-84
2022/04/22 08:25:47;;;;;;;7.80;2.70;;;17.00;87.60;;;;;;5053742;28;20175;-83
2022/04/22 08:28:15;;;;;;;5.43;2.00;;;17.00;87.70;;;;;;5054833;28;20175;-83
2022/04/22 08:30:42;;;;;;;4.80;1.50;;;17.00;87.60;;;;;;5054455;28;20198;-84
2022/04/22 08:33:09;;;;;;;4.53;1.40;;;16.90;87.40;;;;;;5056642;28;20263;-81
2022/04/22 08:35:37;;;;;;;7.40;2.47;;;16.90;87.70;;;;;;5054439;28;20243;-81
2022/04/22 08:38:07;;;;;;;8.27;4.30;;;16.90;87.50;;;;;;5054754;28;20164;-81
2022/04/22 08:40:39;;;;;;;6.37;3.27;;;16.80;87.20;;;;;;5054985;28;20217;-79
2022/04/22 08:43:12;;;;;;;4.37;1.70;;;16.80;87.10;;;;;;5064108;28;20231;-81
2022/04/22 08:45:39;;;;;;;5.87;1.70;;;16.80;87.50;;;;;;5059624;28;20194;-80
2022/04/22 08:50:57;;;;;;;5.50;2.13;;;16.80;88.30;;;;;;5056442;28;20259;-83
2022/04/22 08:53:30;;;;;;;8.17;1.87;;;16.80;88.60;;;;;;5060621;28;20179;-81
2022/04/22 08:56:01;;;;;;;5.00;1.73;;;16.80;88.70;;;;;;5049665;28;20734;-84
2022/04/22 08:58:29;;;;;;;8.63;1.53;;;16.80;88.70;;;;;;5054021;28;20640;-81
2022/04/22 09:00:57;;;;;;;10.27;1.90;;;16.80;88.70;;;;;;5052153;28;20199;-81
2022/04/22 09:03:28;;;;;;;5.23;1.97;;;16.80;89.00;;;;;;5070098;28;20187;-82
2022/04/22 09:05:57;;;;;;;11.60;2.00;;;16.80;89.00;;;;;;5064451;28;20172;-83
2022/04/22 09:08:26;;;;;;;8.03;3.10;;;16.70;89.30;;;;;;5048936;28;20194;-81
2022/04/22 09:10:55;;;;;;;14.50;7.87;;;16.70;89.60;;;;;;5043882;28;20643;-84
2022/04/22 09:13:26;;;;;;;7.33;3.40;;;16.70;90.00;;;;;;5049524;28;20680;-80
2022/04/22 09:15:55;;;;;;;10.17;3.20;;;16.80;90.20;;;;;;5046626;28;20211;-82
2022/04/22 09:18:29;;;;;;;7.10;2.27;;;16.70;90.40;;;;;;5047326;28;20212;-79
2022/04/22 09:21:02;;;;;;;7.87;2.13;;;16.80;90.40;;;;;;5050763;28;20260;-78
2022/04/22 09:23:35;;;;;;;7.47;2.33;;;16.70;90.30;;;;;;5054197;28;20274;-79
2022/04/22 09:26:05;;;;;;;5.23;2.23;;;16.70;90.30;;;;;;5074832;28;20658;-78
2022/04/22 09:28:34;;;;;;;11.10;2.43;;;16.70;90.40;;;;;;5062977;28;20223;-76
2022/04/22 09:31:04;;;;;;;8.43;2.33;;;16.70;90.80;;;;;;5054024;28;20191;-76
2022/04/22 09:33:44;;;;;;;7.40;2.10;;;16.70;91.10;;;;;;5057666;28;20269;-77
2022/04/22 09:45:08;;;;;;;10.60;2.60;;;16.70;91.60;;;;;;5054133;28;20660;-77
2022/04/22 09:47:37;;;;;;;7.03;2.17;;;16.70;91.80;;;;;;5065748;28;20193;-76
2022/04/22 09:50:14;;;;;;;5.33;1.90;;;16.60;91.90;;;;;;5063637;28;20591;-76
2022/04/22 09:52:46;;;;;;;7.20;2.13;;;16.60;91.90;;;;;;5052238;28;20188;-77
2022/04/22 09:55:16;;;;;;;11.00;2.37;;;16.50;92.00;;;;;;5055240;28;20270;-75
2022/04/22 09:57:56;;;;;;;5.80;1.80;;;16.60;92.20;;;;;;5067490;28;20192;-74
2022/04/22 10:00:26;;;;;;;7.00;2.40;;;16.60;92.10;;;;;;5061515;28;20585;-75
2022/04/22 10:02:54;;;;;;;5.60;2.20;;;16.60;92.40;;;;;;5053653;28;20174;-74
2022/04/22 10:05:27;;;;;;;7.03;2.60;;;16.60;92.60;;;;;;5054517;28;20193;-75
2022/04/22 10:08:00;;;;;;;8.60;2.90;;;16.60;92.70;;;;;;5059266;28;20215;-74
2022/04/22 10:10:39;;;;;;;7.83;2.60;;;16.60;92.70;;;;;;5057922;28;20176;-76
2022/04/22 10:13:12;;;;;;;6.37;2.50;;;16.70;92.70;;;;;;5053906;28;20181;-76
2022/04/22 10:15:42;;;;;;;7.90;2.80;;;16.70;92.80;;;;;;5057872;28;20193;-75
2022/04/22 10:18:11;;;;;;;3.93;2.23;;;16.60;92.70;;;;;;5056228;28;20180;-77
2022/04/22 10:20:40;;;;;;;7.33;2.63;;;16.60;92.70;;;;;;5047488;28;20226;-76
2022/04/22 10:23:08;;;;;;;4.83;2.20;;;16.60;92.70;;;;;;5066937;28;20226;-77
2022/04/22 10:25:35;;;;;;;10.90;2.67;;;16.60;92.70;;;;;;5063535;28;20181;-76
2022/04/22 10:28:08;;;;;;;8.63;2.33;;;16.60;92.90;;;;;;5062068;28;20335;-77
2022/04/22 10:30:37;;;;;;;6.13;2.57;;;16.50;92.60;;;;;;5066887;28;20533;-76
2022/04/22 10:33:05;;;;;;;6.60;2.70;;;16.50;92.60;;;;;;5068214;28;20237;-78
2022/04/22 10:35:40;;;;;;;7.23;2.80;;;16.50;92.50;;;;;;5066303;28;20261;-77
2022/04/22 10:38:29;;;;;;;7.70;2.13;;;16.50;92.40;;;;;;5056114;28;20236;-77
2022/04/22 10:40:56;;;;;;;6.93;2.30;;;16.40;92.50;;;;;;5057353;28;20183;-75
2022/04/22 10:43:26;;;;;;;8.03;2.67;;;16.30;92.50;;;;;;5065091;28;20225;-76
2022/04/22 10:48:41;;;;;;;9.80;2.40;;;16.30;92.70;;;;;;5066306;28;20195;-78
2022/04/22 10:51:09;;;;;;;9.27;2.33;;;16.30;92.70;;;;;;5056037;28;20662;-78
2022/04/22 10:53:49;;;;;;;6.77;2.27;;;16.30;92.90;;;;;;5059666;28;22014;-78
2022/04/22 10:56:33;;;;;;;5.43;2.13;;;16.30;92.90;;;;;;5057412;28;20653;-78
2022/04/22 10:59:21;;;;;;;6.10;2.40;;;16.30;92.80;;;;;;5068823;28;20209;-76
2022/04/22 11:01:49;;;;;;;6.53;2.10;;;16.30;92.90;;;;;;5052416;28;20684;-76
2022/04/22 11:04:29;;;;;;;4.03;2.30;;;16.30;92.90;;;;;;5051778;28;20211;-78
2022/04/22 11:06:57;;;;;;;6.97;2.30;;;16.30;93.00;;;;;;5053403;28;20182;-79
2022/04/22 11:09:27;;;;;;;7.13;2.77;;;16.30;93.00;;;;;;5051741;28;20181;-80
2022/04/22 11:11:55;;;;;;;5.80;2.40;;;16.30;93.10;;;;;;5034778;28;20203;-80
2022/04/22 11:14:25;;;;;;;7.23;2.43;;;16.30;93.20;;;;;;5036198;28;20658;-78
2022/04/22 11:16:55;;;;;;;7.27;2.63;;;16.20;93.20;;;;;;5051225;28;20187;-78
2022/04/22 11:19:26;;;;;;;10.90;2.77;;;16.20;93.40;;;;;;5065949;28;20229;-78
2022/04/22 11:21:58;;;;;;;10.00;2.43;;;16.20;93.40;;;;;;5056862;28;20184;-78
2022/04/22 11:24:29;;;;;;;8.23;2.53;;;16.20;93.40;;;;;;5056628;28;20195;-78
2022/04/22 11:27:13;;;;;;;5.43;2.60;;;16.20;93.50;;;;;;5056502;28;20175;-79
2022/04/22 11:29:45;;;;;;;9.77;2.73;;;16.20;93.60;;;;;;5072694;28;20192;-78
2022/04/22 11:32:15;;;;;;;7.50;2.80;;;16.30;93.50;;;;;;5068396;28;20179;-74
2022/04/22 11:35:07;;;;;;;5.23;2.50;;;16.30;93.50;;;;;;5076501;28;20177;-75
2022/04/22 11:37:37;;;;;;;9.03;3.40;;;16.30;93.50;;;;;;5075183;28;20166;-78
2022/04/22 11:40:08;;;;;;;8.87;2.93;;;16.30;93.50;;;;;;5055372;28;20219;-77
2022/04/22 11:42:45;;;;;;;6.97;3.07;;;16.30;93.50;;;;;;5056099;28;20266;-77
2022/04/22 11:45:15;;;;;;;6.57;3.50;;;16.30;93.50;;;;;;5059130;28;20231;-78
2022/04/22 11:47:43;;;;;;;6.23;3.03;;;16.30;93.60;;;;;;5063053;28;20661;-75
2022/04/22 11:50:18;;;;;;;5.73;2.50;;;16.30;93.60;;;;;;5059059;28;20329;-78
2022/04/22 11:52:51;;;;;;;5.57;2.60;;;16.30;93.60;;;;;;5055712;28;20191;-74
2022/04/22 11:55:21;;;;;;;8.33;2.93;;;16.20;93.60;;;;;;5055243;28;20273;-78
2022/04/22 11:57:49;;;;;;;8.13;3.17;;;16.20;93.70;;;;;;5062035;28;20324;-75
2022/04/22 12:05:52;;;;;;;8.53;3.30;;;16.20;93.90;;;;;;5055369;28;20217;-75
2022/04/22 12:08:20;;;;;;;11.87;2.90;;;16.10;93.90;;;;;;5055196;28;20174;-75
2022/04/22 12:10:50;;;;;;;11.53;2.70;;;16.20;94.10;;;;;;5055034;28;20633;-75
2022/04/22 12:13:18;;;;;;;8.67;3.00;;;16.20;94.10;;;;;;5055396;28;20180;-83
2022/04/22 12:15:48;;;;;;;9.37;2.93;;;16.20;94.20;;;;;;5046116;28;20187;-77
2022/04/22 12:18:35;;;;;;;5.17;2.40;;;16.10;94.10;;;;;;5035502;28;20180;-80
2022/04/22 12:21:06;;;;;;;6.10;2.37;;;16.20;94.30;;;;;;5060614;28;20656;-78
2022/04/22 12:23:35;;;;;;;6.83;2.37;;;16.20;94.10;;;;;;5060201;28;20252;-78
2022/04/22 12:26:03;;;;;;;9.47;2.77;;;16.20;94.00;;;;;;5063841;28;20608;-77
2022/04/22 12:28:31;;;;;;;6.23;2.83;;;16.10;94.00;;;;;;5045129;28;20194;-79
2022/04/22 12:30:58;;;;;;;8.03;3.70;;;16.20;94.30;;;;;;5055704;28;20179;-79
2022/04/22 12:33:26;;;;;;;12.50;3.97;;;16.20;94.40;;;;;;5061503;28;20669;-75
2022/04/22 12:36:07;;;;;;;8.33;4.17;;;16.10;94.50;;;;;;5054192;28;20233;-76
2022/04/22 12:38:37;;;;;;;10.67;4.30;;;16.10;94.40;;;;;;5054637;28;20664;-76
2022/04/22 12:41:26;;;;;;;13.30;4.70;;;16.10;94.50;;;;;;5054298;28;20180;-75
2022/04/22 12:43:56;;;;;;;12.30;4.70;;;16.10;94.60;;;;;;5054422;28;20188;-76
2022/04/22 12:52:16;;;;;;;7.53;3.80;;;16.00;94.50;;;;;;5050212;28;20251;-77
2022/04/22 12:54:47;;;;;;;6.43;4.23;;;16.00;94.40;;;;;;5053132;28;20190;-77
2022/04/22 12:57:22;;;;;;;10.30;3.90;;;16.00;94.50;;;;;;5033330;28;20190;-75
2022/04/22 12:59:55;;;;;;;7.87;4.20;;;16.00;94.50;;;;;;5044028;28;20217;-76
2022/04/22 13:02:33;;;;;;;6.43;3.13;;;16.00;94.50;;;;;;5061491;28;20186;-75
2022/04/22 13:05:06;;;;;;;5.33;3.07;;;16.00;94.50;;;;;;5065383;28;20533;-76
2022/04/22 13:07:45;;;;;;;6.00;2.73;;;16.00;94.60;;;;;;5054652;28;20635;-79
2022/04/22 13:10:14;;;;;;;4.90;2.60;;;16.00;94.50;;;;;;5054071;28;20194;-77
2022/04/22 13:12:43;;;;;;;5.07;2.47;;;15.90;94.50;;;;;;5054239;28;20180;-78
2022/04/22 13:15:14;;;;;;;7.33;2.90;;;15.90;94.60;;;;;;5053303;28;20503;-81
2022/04/22 13:17:45;;;;;;;7.97;2.60;;;15.90;94.70;;;;;;5053424;28;20193;-81
2022/04/22 13:20:15;;;;;;;6.53;2.57;;;16.00;94.70;;;;;;5054333;28;20234;-80
2022/04/22 13:22:43;;;;;;;6.47;2.60;;;15.90;94.80;;;;;;5053374;28;20186;-80
2022/04/22 13:25:12;;;;;;;3.97;2.23;;;15.90;94.80;;;;;;5053799;28;20194;-80
2022/04/22 13:27:41;;;;;;;6.90;3.00;;;15.80;94.90;;;;;;5048162;28;20217;-80
2022/04/22 13:30:10;;;;;;;6.93;2.70;;;15.80;94.90;;;;;;5053449;28;20194;-80
2022/04/22 13:32:38;;;;;;;6.93;2.43;;;15.70;94.80;;;;;;5057439;28;20183;-79
2022/04/22 13:35:06;;;;;;;5.00;2.20;;;15.80;94.90;;;;;;5053894;28;20166;-79
2022/04/22 13:37:34;;;;;;;6.27;2.17;;;15.80;95.10;;;;;;5054281;28;20639;-78
2022/04/22 13:40:03;;;;;;;4.83;1.70;;;15.70;94.90;;;;;;5055601;28;20226;-79
2022/04/22 13:42:30;;;;;;;4.73;1.87;;;15.70;94.90;;;;;;5052901;28;20234;-78
2022/04/22 13:53:13;;;;;;;5.30;2.40;;;15.80;95.10;;;;;;5054001;28;20222;-78
2022/04/22 13:55:41;;;;;;;4.57;1.87;;;15.80;95.00;;;;;;5053459;28;20169;-78
2022/04/22 13:58:09;;;;;;;5.53;2.30;;;15.80;94.90;;;;;;5072949;28;20198;-78
2022/04/22 14:00:36;;;;;;;5.73;1.90;;;15.80;94.90;;;;;;5072278;28;20241;-78
2022/04/22 14:03:04;;;;;;;5.83;2.13;;;15.80;94.90;;;;;;5073665;28;20209;-79
2022/04/22 14:05:32;;;;;;;8.57;2.50;;;15.80;94.90;;;;;;5073776;28;20270;-79
2022/04/22 14:07:59;;;;;;;4.10;1.97;;;15.80;94.90;;;;;;5073485;28;20178;-79
2022/04/22 14:10:27;;;;;;;6.03;2.07;;;15.80;94.80;;;;;;5064905;28;20239;-79
2022/04/22 14:12:54;;;;;;;5.87;2.37;;;15.80;94.90;;;;;;5054180;28;20244;-78
2022/04/22 14:15:22;;;;;;;3.13;2.07;;;15.80;94.90;;;;;;5073894;28;20174;-79
2022/04/22 14:17:51;;;;;;;7.33;2.20;;;15.80;94.80;;;;;;5073312;28;20221;-79